createdAt,value
2017-03-28T00:00:54.348Z,3.75
2017-03-28T00:01:53.129Z,4.20
2017-03-28T00:02:51.942Z,4.78
2017-03-28T00:03:50.750Z,4.58
2017-03-28T00:04:49.601Z,4.30
2017-03-28T00:05:48.457Z,4.48
2017-03-28T00:06:47.612Z,4.45
2017-03-28T00:07:46.009Z,3.98
2017-03-28T00:08:44.849Z,4.33
2017-03-28T00:09:43.681Z,4.37
2017-03-28T00:10:42.514Z,3.97
2017-03-28T00:11:41.364Z,4.23
2017-03-28T00:12:40.581Z,4.28
2017-03-28T00:13:39.419Z,4.45
2017-03-28T00:14:38.232Z,4.17
2017-03-28T00:15:36.673Z,4.13
2017-03-28T00:16:35.509Z,4.80
2017-03-28T00:17:34.318Z,4.05
2017-03-28T00:18:33.456Z,3.87
2017-03-28T00:19:32.269Z,4.10
2017-03-28T00:20:30.697Z,4.25
2017-03-28T00:21:29.497Z,4.20
2017-03-28T00:22:28.339Z,4.33
2017-03-28T00:23:26.738Z,3.88
2017-03-28T00:24:25.509Z,4.37
2017-03-28T00:25:24.334Z,4.67
2017-03-28T00:26:23.128Z,3.43
2017-03-28T00:27:21.589Z,4.42
2017-03-28T00:28:20.417Z,4.13
2017-03-28T00:29:19.209Z,3.97
2017-03-28T00:30:18.072Z,4.20
2017-03-28T00:31:16.489Z,4.22
2017-03-28T00:32:15.319Z,4.07
2017-03-28T00:33:14.177Z,4.75
2017-03-28T00:34:13.014Z,4.40
2017-03-28T00:35:11.888Z,3.97
2017-03-28T00:36:11.008Z,4.45
2017-03-28T00:37:09.838Z,3.73
2017-03-28T00:38:08.679Z,4.88
2017-03-28T00:39:07.150Z,4.25
2017-03-28T00:40:06.017Z,4.28
2017-03-28T00:41:04.850Z,4.30
2017-03-28T00:42:03.617Z,4.05
2017-03-28T00:43:02.438Z,4.17
2017-03-28T00:44:01.234Z,4.70
2017-03-28T00:45:00.016Z,4.42
2017-03-28T00:45:58.835Z,4.05
2017-03-28T00:46:57.651Z,4.48
2017-03-28T00:47:56.789Z,4.70
2017-03-28T00:48:55.604Z,4.47
2017-03-28T00:49:54.052Z,4.48
2017-03-28T00:50:52.860Z,3.88
2017-03-28T00:51:51.755Z,4.17
2017-03-28T00:52:50.577Z,4.48
2017-03-28T00:53:49.763Z,4.43
2017-03-28T00:54:48.865Z,3.97
2017-03-28T00:55:47.251Z,4.22
2017-03-28T00:56:45.675Z,3.65
2017-03-28T00:57:44.497Z,4.30
2017-03-28T00:58:43.322Z,4.45
2017-03-28T00:59:42.428Z,3.50
2017-03-28T01:00:41.274Z,4.53
2017-03-28T01:01:39.734Z,4.73
2017-03-28T01:02:38.232Z,4.08
2017-03-28T01:03:37.017Z,4.27
2017-03-28T01:04:35.825Z,4.25
2017-03-28T01:05:34.904Z,4.82
2017-03-28T01:06:33.765Z,4.00
2017-03-28T01:07:32.593Z,4.52
2017-03-28T01:08:31.429Z,4.85
2017-03-28T01:09:30.272Z,5.10
2017-03-28T01:10:29.149Z,4.83
2017-03-28T01:11:28.272Z,3.50
2017-03-28T01:12:27.324Z,4.52
2017-03-28T01:13:26.062Z,4.57
2017-03-28T01:14:24.465Z,3.62
2017-03-28T01:15:22.975Z,4.63
2017-03-28T01:16:21.792Z,4.80
2017-03-28T01:17:20.639Z,4.10
2017-03-28T01:18:19.486Z,4.28
2017-03-28T01:19:18.356Z,3.97
2017-03-28T01:20:17.189Z,4.87
2017-03-28T01:21:16.020Z,5.03
2017-03-28T01:22:14.844Z,3.83
2017-03-28T01:23:14.025Z,4.90
2017-03-28T01:24:12.861Z,4.08
2017-03-28T01:25:11.686Z,5.82
2017-03-28T01:26:10.552Z,4.18
2017-03-28T01:27:09.412Z,3.82
2017-03-28T01:28:08.233Z,4.12
2017-03-28T01:29:07.333Z,4.33
2017-03-28T01:30:05.789Z,4.53
2017-03-28T01:31:04.625Z,4.38
2017-03-28T01:32:03.465Z,4.75
2017-03-28T01:33:02.699Z,4.23
2017-03-28T01:34:01.173Z,3.87
2017-03-28T01:35:00.376Z,4.28
2017-03-28T01:35:59.171Z,4.22
2017-03-28T01:36:57.607Z,3.28
2017-03-28T01:37:56.417Z,4.63
2017-03-28T01:38:55.217Z,3.87
2017-03-28T01:39:54.413Z,4.17
2017-03-28T01:40:53.551Z,4.12
2017-03-28T01:41:52.584Z,4.05
2017-03-28T01:42:51.402Z,3.97
2017-03-28T01:43:50.272Z,4.10
2017-03-28T01:44:49.076Z,4.23
2017-03-28T01:45:47.886Z,4.30
2017-03-28T01:46:47.047Z,4.88
2017-03-28T01:47:45.865Z,4.05
2017-03-28T01:48:44.685Z,3.97
2017-03-28T01:49:43.513Z,4.80
2017-03-28T01:50:42.299Z,3.87
2017-03-28T01:51:41.100Z,4.45
2017-03-28T01:52:40.218Z,4.23
2017-03-28T01:53:39.006Z,4.18
2017-03-28T01:54:37.821Z,4.27
2017-03-28T01:55:36.646Z,4.77
2017-03-28T01:56:35.521Z,3.98
2017-03-28T01:57:34.375Z,4.45
2017-03-28T01:58:33.602Z,3.72
2017-03-28T01:59:32.405Z,4.43
2017-03-28T02:00:31.268Z,4.43
2017-03-28T02:01:30.085Z,4.20
2017-03-28T02:02:28.925Z,4.63
2017-03-28T02:03:27.755Z,4.55
2017-03-28T02:04:26.884Z,4.80
2017-03-28T02:05:25.712Z,4.57
2017-03-28T02:06:25.298Z,4.58
2017-03-28T02:07:24.150Z,5.28
2017-03-28T02:08:22.974Z,4.77
2017-03-28T02:09:22.218Z,4.65
2017-03-28T02:10:21.391Z,4.80
2017-03-28T02:11:20.215Z,4.43
2017-03-28T02:12:19.044Z,4.40
2017-03-28T02:13:17.848Z,5.07
2017-03-28T02:14:16.677Z,4.42
2017-03-28T02:15:15.492Z,5.03
2017-03-28T02:16:14.605Z,4.55
2017-03-28T02:17:13.764Z,5.22
2017-03-28T02:18:12.565Z,3.97
2017-03-28T02:19:11.411Z,4.43
2017-03-28T02:20:10.237Z,4.95
2017-03-28T02:21:09.040Z,4.40
2017-03-28T02:22:08.272Z,4.78
2017-03-28T02:23:07.092Z,4.73
2017-03-28T02:24:05.964Z,4.47
2017-03-28T02:25:04.784Z,4.48
2017-03-28T02:26:03.592Z,4.75
2017-03-28T02:27:02.417Z,4.48
2017-03-28T02:28:01.548Z,4.50
2017-03-28T02:29:00.382Z,4.45
2017-03-28T02:29:59.223Z,5.30
2017-03-28T02:30:58.053Z,4.55
2017-03-28T02:31:56.870Z,4.65
2017-03-28T02:32:55.289Z,4.28
2017-03-28T02:33:54.421Z,5.67
2017-03-28T02:34:53.217Z,5.27
2017-03-28T02:35:52.117Z,4.47
2017-03-28T02:36:50.928Z,4.22
2017-03-28T02:37:49.717Z,4.50
2017-03-28T02:38:48.576Z,4.32
2017-03-28T02:39:47.700Z,4.07
2017-03-28T02:40:46.502Z,4.12
2017-03-28T02:41:45.309Z,4.18
2017-03-28T02:42:43.748Z,4.60
2017-03-28T02:43:42.904Z,4.62
2017-03-28T02:44:41.736Z,4.48
2017-03-28T02:45:40.876Z,4.70
2017-03-28T02:46:40.409Z,4.60
2017-03-28T02:47:38.854Z,5.10
2017-03-28T02:48:37.638Z,4.40
2017-03-28T02:49:36.051Z,5.42
2017-03-28T02:50:34.845Z,4.88
2017-03-28T02:51:34.056Z,4.90
2017-03-28T02:52:32.892Z,4.35
2017-03-28T02:53:31.318Z,4.42
2017-03-28T02:54:29.712Z,4.72
2017-03-28T02:55:28.112Z,4.65
2017-03-28T02:56:27.239Z,4.80
2017-03-28T02:57:26.423Z,4.57
2017-03-28T02:58:25.209Z,4.55
2017-03-28T02:59:24.398Z,4.60
2017-03-28T03:00:23.225Z,4.62
2017-03-28T03:01:21.737Z,4.92
2017-03-28T03:02:20.893Z,4.98
2017-03-28T03:03:20.012Z,4.23
2017-03-28T03:04:18.829Z,5.05
2017-03-28T03:05:17.639Z,4.77
2017-03-28T03:06:16.453Z,4.35
2017-03-28T03:07:15.593Z,4.20
2017-03-28T03:08:14.750Z,4.10
2017-03-28T03:09:13.513Z,5.15
2017-03-28T03:10:12.352Z,4.03
2017-03-28T03:11:11.173Z,4.32
2017-03-28T03:12:09.994Z,5.28
2017-03-28T03:13:08.797Z,5.53
2017-03-28T03:14:07.616Z,4.75
2017-03-28T03:15:06.792Z,5.03
2017-03-28T03:16:05.614Z,4.37
2017-03-28T03:17:04.409Z,4.22
2017-03-28T03:18:03.228Z,4.15
2017-03-28T03:19:01.653Z,4.32
2017-03-28T03:20:00.472Z,4.60
2017-03-28T03:20:59.657Z,5.03
2017-03-28T03:21:58.490Z,3.95
2017-03-28T03:22:56.925Z,4.77
2017-03-28T03:23:55.739Z,4.98
2017-03-28T03:24:54.525Z,4.60
2017-03-28T03:25:53.314Z,4.95
2017-03-28T03:26:52.395Z,5.97
2017-03-28T03:27:51.193Z,4.43
2017-03-28T03:28:49.992Z,4.15
2017-03-28T03:29:48.809Z,4.35
2017-03-28T03:30:47.633Z,4.75
2017-03-28T03:31:46.453Z,5.17
2017-03-28T03:32:45.595Z,4.13
2017-03-28T03:33:44.038Z,4.40
2017-03-28T03:34:42.853Z,4.58
2017-03-28T03:35:42.008Z,4.92
2017-03-28T03:36:40.828Z,4.77
2017-03-28T03:37:39.667Z,4.80
2017-03-28T03:38:38.775Z,5.10
2017-03-28T03:39:37.577Z,5.10
2017-03-28T03:40:36.029Z,5.07
2017-03-28T03:41:34.853Z,4.53
2017-03-28T03:42:33.805Z,5.12
2017-03-28T03:43:32.617Z,4.85
2017-03-28T03:44:31.769Z,5.35
2017-03-28T03:45:30.588Z,4.35
2017-03-28T03:46:29.791Z,5.23
2017-03-28T03:47:28.664Z,4.83
2017-03-28T03:48:27.537Z,4.10
2017-03-28T03:49:25.924Z,4.85
2017-03-28T03:50:25.020Z,4.52
2017-03-28T03:51:23.877Z,4.75
2017-03-28T03:52:22.899Z,4.93
2017-03-28T03:53:21.725Z,5.12
2017-03-28T03:54:20.533Z,6.93
2017-03-28T03:55:18.989Z,5.00
2017-03-28T03:56:18.097Z,5.07
2017-03-28T03:57:16.885Z,5.02
2017-03-28T03:58:15.713Z,4.33
2017-03-28T03:59:14.142Z,5.02
2017-03-28T04:00:12.636Z,4.68
2017-03-28T04:01:11.849Z,5.13
2017-03-28T04:02:10.908Z,5.65
2017-03-28T04:03:09.332Z,5.18
2017-03-28T04:04:08.151Z,5.28
2017-03-28T04:05:07.025Z,5.25
2017-03-28T04:06:05.967Z,4.82
2017-03-28T04:07:05.217Z,5.75
2017-03-28T04:08:04.338Z,4.78
2017-03-28T04:09:03.162Z,4.68
2017-03-28T04:10:01.602Z,5.05
2017-03-28T04:11:00.477Z,6.18
2017-03-28T04:11:59.364Z,4.60
2017-03-28T04:12:58.906Z,4.88
2017-03-28T04:13:57.581Z,7.05
2017-03-28T04:14:56.406Z,4.95
2017-03-28T04:15:55.212Z,5.08
2017-03-28T04:16:54.015Z,5.25
2017-03-28T04:17:52.827Z,5.97
2017-03-28T04:18:52.025Z,5.65
2017-03-28T04:19:51.115Z,5.05
2017-03-28T04:20:49.500Z,6.77
2017-03-28T04:21:48.302Z,5.97
2017-03-28T04:22:47.060Z,5.87
2017-03-28T04:23:46.275Z,5.32
2017-03-28T04:24:45.136Z,5.73
2017-03-28T04:25:44.340Z,5.85
2017-03-28T04:26:43.257Z,5.88
2017-03-28T04:27:43.134Z,5.00
2017-03-28T04:28:42.016Z,5.58
2017-03-28T04:29:40.538Z,6.13
2017-03-28T04:30:39.525Z,5.57
2017-03-28T04:31:38.743Z,5.55
2017-03-28T04:32:39.186Z,5.78
2017-03-28T04:33:39.076Z,6.22
2017-03-28T04:34:39.558Z,5.35
2017-03-28T04:35:40.225Z,5.35
2017-03-28T04:36:40.472Z,5.62
2017-03-28T04:37:40.230Z,5.00
2017-03-28T04:38:40.558Z,5.22
2017-03-28T04:39:40.285Z,6.10
2017-03-28T04:40:39.740Z,5.25
2017-03-28T04:41:39.283Z,5.37
2017-03-28T04:42:39.158Z,7.05
2017-03-28T04:43:37.990Z,5.82
2017-03-28T04:44:36.871Z,5.97
2017-03-28T04:45:35.767Z,6.28
2017-03-28T04:46:34.716Z,5.05
2017-03-28T04:47:33.197Z,6.27
2017-03-28T04:48:31.921Z,5.33
2017-03-28T04:49:30.807Z,6.23
2017-03-28T04:50:29.712Z,6.13
2017-03-28T04:51:28.598Z,5.20
2017-03-28T04:52:27.144Z,5.48
2017-03-28T04:53:25.976Z,5.17
2017-03-28T04:54:24.846Z,5.60
2017-03-28T04:55:23.724Z,6.10
2017-03-28T04:56:22.569Z,6.00
2017-03-28T04:57:21.449Z,5.93
2017-03-28T04:58:20.318Z,6.30
2017-03-28T04:59:19.241Z,5.35
2017-03-28T05:00:18.123Z,5.60
2017-03-28T05:01:17.045Z,6.13
2017-03-28T05:02:15.991Z,5.85
2017-03-28T05:03:14.481Z,5.77
2017-03-28T05:04:13.366Z,5.95
2017-03-28T05:05:12.492Z,6.85
2017-03-28T05:06:11.718Z,6.07
2017-03-28T05:07:10.648Z,6.05
2017-03-28T05:08:09.143Z,5.43
2017-03-28T05:09:08.016Z,5.90
2017-03-28T05:10:06.870Z,5.58
2017-03-28T05:11:05.770Z,5.77
2017-03-28T05:12:04.937Z,5.17
2017-03-28T05:13:03.846Z,6.47
2017-03-28T05:14:02.388Z,6.20
2017-03-28T05:15:01.265Z,6.05
2017-03-28T05:16:00.116Z,5.57
2017-03-28T05:16:58.946Z,5.97
2017-03-28T05:17:58.210Z,5.05
2017-03-28T05:18:57.049Z,6.55
2017-03-28T05:19:55.543Z,6.35
2017-03-28T05:20:54.436Z,5.88
2017-03-28T05:21:53.334Z,5.10
2017-03-28T05:22:52.178Z,5.62
2017-03-28T05:23:51.308Z,5.63
2017-03-28T05:24:49.809Z,6.47
2017-03-28T05:25:48.732Z,5.30
2017-03-28T05:26:47.977Z,6.13
2017-03-28T05:27:46.476Z,5.42
2017-03-28T05:28:45.339Z,5.37
2017-03-28T05:29:44.522Z,6.10
2017-03-28T05:30:43.071Z,6.13
2017-03-28T05:31:41.923Z,5.43
2017-03-28T05:32:40.806Z,5.90
2017-03-28T05:33:39.742Z,5.38
2017-03-28T05:34:38.625Z,5.55
2017-03-28T05:35:38.221Z,5.80
2017-03-28T05:36:37.152Z,6.87
2017-03-28T05:37:36.043Z,5.83
2017-03-28T05:38:34.539Z,6.07
2017-03-28T05:39:33.390Z,5.77
2017-03-28T05:40:32.261Z,5.43
2017-03-28T05:41:31.029Z,5.48
2017-03-28T05:42:29.883Z,5.00
2017-03-28T05:43:28.337Z,5.82
2017-03-28T05:44:27.204Z,6.12
2017-03-28T05:45:26.085Z,5.20
2017-03-28T05:46:24.532Z,5.43
2017-03-28T05:47:23.772Z,5.35
2017-03-28T05:48:22.635Z,5.77
2017-03-28T05:49:21.529Z,5.35
2017-03-28T05:50:20.423Z,6.12
2017-03-28T05:51:19.650Z,4.58
2017-03-28T05:52:18.594Z,5.55
2017-03-28T05:53:17.462Z,5.10
2017-03-28T05:54:15.983Z,5.32
2017-03-28T05:55:14.535Z,5.57
2017-03-28T05:56:13.388Z,5.60
2017-03-28T05:57:12.264Z,4.85
2017-03-28T05:58:11.167Z,4.95
2017-03-28T05:59:10.417Z,4.37
2017-03-28T06:00:09.336Z,4.85
2017-03-28T06:01:08.224Z,4.12
2017-03-28T06:02:07.125Z,5.30
2017-03-28T06:03:06.296Z,4.60
2017-03-28T06:04:05.201Z,5.00
2017-03-28T06:05:04.447Z,4.38
2017-03-28T06:06:03.294Z,4.97
2017-03-28T06:07:02.132Z,4.33
2017-03-28T06:08:00.992Z,4.80
2017-03-28T06:08:59.914Z,4.12
2017-03-28T06:09:58.722Z,4.03
2017-03-28T06:10:57.380Z,4.20
2017-03-28T06:11:56.796Z,4.33
2017-03-28T06:12:55.777Z,5.22
2017-03-28T06:13:54.533Z,4.02
2017-03-28T06:14:52.899Z,5.50
2017-03-28T06:15:52.439Z,4.50
2017-03-28T06:16:51.892Z,5.40
2017-03-28T06:17:50.694Z,4.98
2017-03-28T06:18:49.449Z,5.78
2017-03-28T06:19:48.238Z,4.83
2017-03-28T06:20:46.990Z,4.80
2017-03-28T06:21:45.771Z,4.78
2017-03-28T06:22:44.863Z,4.83
2017-03-28T06:23:43.832Z,4.68
2017-03-28T06:24:42.253Z,4.80
2017-03-28T06:25:40.617Z,4.80
2017-03-28T06:26:38.990Z,4.82
2017-03-28T06:27:37.783Z,4.55
2017-03-28T06:28:36.927Z,4.65
2017-03-28T06:29:35.692Z,4.65
2017-03-28T06:30:34.232Z,4.50
2017-03-28T06:31:33.157Z,5.27
2017-03-28T06:32:31.933Z,5.13
2017-03-28T06:33:40.120Z,5.42
2017-03-28T06:34:41.843Z,5.42
2017-03-28T06:35:42.082Z,4.77
2017-03-28T06:36:42.128Z,4.98
2017-03-28T06:37:40.976Z,4.97
2017-03-28T06:38:39.874Z,4.77
2017-03-28T06:39:38.778Z,6.65
2017-03-28T06:40:37.877Z,5.62
2017-03-28T06:41:36.699Z,5.22
2017-03-28T06:42:35.525Z,6.10
2017-03-28T06:43:34.369Z,5.75
2017-03-28T06:44:33.218Z,4.93
2017-03-28T06:45:32.037Z,5.15
2017-03-28T06:46:31.142Z,5.30
2017-03-28T06:47:29.949Z,5.02
2017-03-28T06:48:28.391Z,6.10
2017-03-28T06:49:27.217Z,5.85
2017-03-28T06:50:26.085Z,5.15
2017-03-28T06:51:24.522Z,5.43
2017-03-28T06:52:23.673Z,5.48
2017-03-28T06:53:22.547Z,5.60
2017-03-28T06:54:21.369Z,5.72
2017-03-28T06:55:20.184Z,5.32
2017-03-28T06:56:19.031Z,5.33
2017-03-28T06:57:17.844Z,5.43
2017-03-28T06:58:17.053Z,5.87
2017-03-28T06:59:15.870Z,6.05
2017-03-28T07:00:14.688Z,6.42
2017-03-28T07:01:13.508Z,5.72
2017-03-28T07:02:12.335Z,5.92
2017-03-28T07:03:10.790Z,5.82
2017-03-28T07:04:09.925Z,6.03
2017-03-28T07:05:08.724Z,6.35
2017-03-28T07:06:07.621Z,6.65
2017-03-28T07:07:06.470Z,5.98
2017-03-28T07:08:05.251Z,7.28
2017-03-28T07:09:04.161Z,6.28
2017-03-28T07:10:02.976Z,6.02
2017-03-28T07:11:01.409Z,6.43
2017-03-28T07:11:59.821Z,6.15
2017-03-28T07:12:58.200Z,6.72
2017-03-28T07:13:56.977Z,5.87
2017-03-28T07:14:55.777Z,6.52
2017-03-28T07:15:54.958Z,6.37
2017-03-28T07:16:53.748Z,6.45
2017-03-28T07:17:52.574Z,6.18
2017-03-28T07:18:51.378Z,7.12
2017-03-28T07:19:50.196Z,6.33
2017-03-28T07:20:49.056Z,6.27
2017-03-28T07:21:48.116Z,7.32
2017-03-28T07:22:46.933Z,6.88
2017-03-28T07:23:45.723Z,6.50
2017-03-28T07:24:44.516Z,6.75
2017-03-28T07:25:42.902Z,5.92
2017-03-28T07:26:41.660Z,7.07
2017-03-28T07:27:40.804Z,7.58
2017-03-28T07:28:39.616Z,7.90
2017-03-28T07:29:38.703Z,7.25
2017-03-28T07:30:37.171Z,6.90
2017-03-28T07:31:36.004Z,6.60
2017-03-28T07:32:34.831Z,6.33
2017-03-28T07:33:34.287Z,6.92
2017-03-28T07:34:33.069Z,8.07
2017-03-28T07:35:31.874Z,7.47
2017-03-28T07:36:31.062Z,7.28
2017-03-28T07:37:29.461Z,6.47
2017-03-28T07:38:28.279Z,7.83
2017-03-28T07:39:27.460Z,6.98
2017-03-28T07:40:25.880Z,7.70
2017-03-28T07:41:24.672Z,6.83
2017-03-28T07:42:23.460Z,7.65
2017-03-28T07:43:22.304Z,6.23
2017-03-28T07:44:21.448Z,7.35
2017-03-28T07:45:20.559Z,7.58
2017-03-28T07:46:19.304Z,7.67
2017-03-28T07:47:18.274Z,7.50
2017-03-28T07:48:17.037Z,7.42
2017-03-28T07:49:15.824Z,6.73
2017-03-28T07:50:14.228Z,6.78
2017-03-28T07:51:13.276Z,6.75
2017-03-28T07:52:12.548Z,7.20
2017-03-28T07:53:10.952Z,6.35
2017-03-28T07:54:09.728Z,7.07
2017-03-28T07:55:08.192Z,7.10
2017-03-28T07:56:07.017Z,7.43
2017-03-28T07:57:06.184Z,7.55
2017-03-28T07:58:04.959Z,7.60
2017-03-28T07:59:03.741Z,7.00
2017-03-28T08:00:02.508Z,7.87
2017-03-28T08:01:01.280Z,6.83
2017-03-28T08:02:00.357Z,7.00
2017-03-28T08:02:59.057Z,6.58
2017-03-28T08:03:57.833Z,7.23
2017-03-28T08:04:56.621Z,7.18
2017-03-28T08:05:55.406Z,7.77
2017-03-28T08:06:54.189Z,7.27
2017-03-28T08:07:52.955Z,8.58
2017-03-28T08:08:52.024Z,7.52
2017-03-28T08:09:50.828Z,7.82
2017-03-28T08:10:49.247Z,7.65
2017-03-28T08:11:48.057Z,7.25
2017-03-28T08:12:46.464Z,7.47
2017-03-28T08:13:45.259Z,7.72
2017-03-28T08:14:44.395Z,7.93
2017-03-28T08:15:43.195Z,7.57
2017-03-28T08:16:42.004Z,7.50
2017-03-28T08:17:42.626Z,8.25
2017-03-28T08:18:42.873Z,7.93
2017-03-28T08:19:43.749Z,8.63
2017-03-28T08:20:42.891Z,7.57
2017-03-28T08:21:41.675Z,8.40
2017-03-28T08:22:40.523Z,7.82
2017-03-28T08:23:39.348Z,8.37
2017-03-28T08:24:38.124Z,7.87
2017-03-28T08:25:36.960Z,7.73
2017-03-28T08:26:36.180Z,8.73
2017-03-28T08:27:35.000Z,7.15
2017-03-28T08:28:33.922Z,8.12
2017-03-28T08:29:32.719Z,8.78
2017-03-28T08:30:31.601Z,8.08
2017-03-28T08:31:30.437Z,7.87
2017-03-28T08:32:29.572Z,7.70
2017-03-28T08:33:28.709Z,8.00
2017-03-28T08:34:27.533Z,9.42
2017-03-28T08:35:26.417Z,8.55
2017-03-28T08:36:25.272Z,8.17
2017-03-28T08:37:24.639Z,8.47
2017-03-28T08:38:23.776Z,8.45
2017-03-28T08:39:22.608Z,8.28
2017-03-28T08:40:21.421Z,9.20
2017-03-28T08:41:20.216Z,8.23
2017-03-28T08:42:19.521Z,7.70
2017-03-28T08:43:18.340Z,8.80
2017-03-28T08:44:17.504Z,8.93
2017-03-28T08:45:16.689Z,8.57
2017-03-28T08:46:15.116Z,8.20
2017-03-28T08:47:13.964Z,9.57
2017-03-28T08:48:12.788Z,8.30
2017-03-28T08:49:11.654Z,9.08
2017-03-28T08:50:10.855Z,8.78
2017-03-28T08:51:09.673Z,8.87
2017-03-28T08:52:08.144Z,8.77
2017-03-28T08:53:06.972Z,9.55
2017-03-28T08:54:05.740Z,8.98
2017-03-28T08:55:04.549Z,8.57
2017-03-28T08:56:03.753Z,8.98
2017-03-28T08:57:02.147Z,9.78
2017-03-28T08:58:00.964Z,9.35
2017-03-28T08:58:59.824Z,8.72
2017-03-28T08:59:58.633Z,8.33
2017-03-28T09:00:57.021Z,8.97
2017-03-28T09:01:56.137Z,9.22
2017-03-28T09:02:54.920Z,9.23
2017-03-28T09:03:54.515Z,8.90
2017-03-28T09:04:53.620Z,8.27
2017-03-28T09:05:54.787Z,8.07
2017-03-28T09:06:53.635Z,9.20
2017-03-28T09:07:52.760Z,8.30
2017-03-28T09:08:51.533Z,8.72
2017-03-28T09:09:50.338Z,8.75
2017-03-28T09:10:49.157Z,9.42
2017-03-28T09:11:47.607Z,9.15
2017-03-28T09:12:46.424Z,8.55
2017-03-28T09:13:45.812Z,9.50
2017-03-28T09:14:44.623Z,9.18
2017-03-28T09:15:43.474Z,9.28
2017-03-28T09:16:42.371Z,9.62
2017-03-28T09:17:41.167Z,9.12
2017-03-28T09:18:39.932Z,8.93
2017-03-28T09:19:38.595Z,9.37
2017-03-28T09:20:37.515Z,8.55
2017-03-28T09:21:36.301Z,9.27
2017-03-28T09:22:35.122Z,10.02
2017-03-28T09:23:33.916Z,9.22
2017-03-28T09:24:32.743Z,8.83
2017-03-28T09:25:31.858Z,9.38
2017-03-28T09:26:30.990Z,8.77
2017-03-28T09:27:29.955Z,8.88
2017-03-28T09:28:28.756Z,9.28
2017-03-28T09:29:27.536Z,8.50
2017-03-28T09:30:26.362Z,8.90
2017-03-28T09:31:25.493Z,9.17
2017-03-28T09:32:24.645Z,8.30
2017-03-28T09:33:23.516Z,9.03
2017-03-28T09:34:22.321Z,9.12
2017-03-28T09:35:30.035Z,8.83
2017-03-28T09:36:29.189Z,9.37
2017-03-28T09:37:28.030Z,8.30
2017-03-28T09:38:26.838Z,9.35
2017-03-28T09:39:25.904Z,9.73
2017-03-28T09:40:24.731Z,9.20
2017-03-28T09:41:23.595Z,9.60
2017-03-28T09:42:22.300Z,9.90
2017-03-28T09:43:21.460Z,9.05
2017-03-28T09:44:20.267Z,8.98
2017-03-28T09:45:19.052Z,9.65
2017-03-28T09:46:18.231Z,9.77
2017-03-28T09:47:17.037Z,9.53
2017-03-28T09:48:16.170Z,9.90
2017-03-28T09:49:14.995Z,9.47
2017-03-28T09:50:14.100Z,9.72
2017-03-28T09:51:12.893Z,10.43
2017-03-28T09:52:11.703Z,8.95
2017-03-28T09:53:10.459Z,9.05
2017-03-28T09:54:09.655Z,10.52
2017-03-28T09:55:08.452Z,10.20
2017-03-28T09:56:07.211Z,9.83
2017-03-28T09:57:06.091Z,8.92
2017-03-28T09:58:04.892Z,9.65
2017-03-28T09:59:03.695Z,9.37
2017-03-28T10:00:03.133Z,9.23
2017-03-28T10:01:01.935Z,9.02
2017-03-28T10:02:00.773Z,9.08
2017-03-28T10:03:01.007Z,10.75
2017-03-28T10:03:59.615Z,9.80
2017-03-28T10:04:58.551Z,8.85
2017-03-28T10:05:57.759Z,9.07
2017-03-28T10:06:56.124Z,9.83
2017-03-28T10:07:54.941Z,8.70
2017-03-28T10:08:53.745Z,8.67
2017-03-28T10:09:52.236Z,9.72
2017-03-28T10:10:50.709Z,9.00
2017-03-28T10:11:50.208Z,9.53
2017-03-28T10:12:49.001Z,9.17
2017-03-28T10:13:47.391Z,9.85
2017-03-28T10:14:45.900Z,8.48
2017-03-28T10:15:44.273Z,9.63
2017-03-28T10:16:43.149Z,10.07
2017-03-28T10:17:42.263Z,9.02
2017-03-28T10:18:41.098Z,8.53
2017-03-28T10:19:40.140Z,9.33
2017-03-28T10:20:38.569Z,10.10
2017-03-28T10:21:37.292Z,8.32
2017-03-28T10:22:36.182Z,8.80
2017-03-28T10:23:35.314Z,9.02
2017-03-28T10:24:33.701Z,8.95
2017-03-28T10:25:32.488Z,10.40
2017-03-28T10:26:31.297Z,9.88
2017-03-28T10:27:30.144Z,9.85
2017-03-28T10:28:28.933Z,8.97
2017-03-28T10:29:28.012Z,9.98
2017-03-28T10:30:26.867Z,10.18
2017-03-28T10:31:25.699Z,9.90
2017-03-28T10:32:24.592Z,11.80
2017-03-28T10:33:23.410Z,9.70
2017-03-28T10:34:22.216Z,9.98
2017-03-28T10:35:21.392Z,9.95
2017-03-28T10:36:19.809Z,10.15
2017-03-28T10:37:18.672Z,9.78
2017-03-28T10:38:17.076Z,9.60
2017-03-28T10:39:15.900Z,9.10
2017-03-28T10:40:14.688Z,8.70
2017-03-28T10:41:13.453Z,9.28
2017-03-28T10:42:12.233Z,9.12
2017-03-28T10:43:10.657Z,9.27
2017-03-28T10:44:09.465Z,9.82
2017-03-28T10:45:07.905Z,8.68
2017-03-28T10:46:08.509Z,10.10
2017-03-28T10:47:07.236Z,10.02
2017-03-28T10:48:06.024Z,10.70
2017-03-28T10:49:07.111Z,10.00
2017-03-28T10:50:06.470Z,9.75
2017-03-28T10:51:06.054Z,9.43
2017-03-28T10:52:07.868Z,10.68
2017-03-28T10:53:09.589Z,9.57
2017-03-28T10:54:11.293Z,10.22
2017-03-28T10:55:11.997Z,9.28
2017-03-28T10:56:12.154Z,10.83
2017-03-28T10:57:12.206Z,10.47
2017-03-28T10:58:12.304Z,10.35
2017-03-28T10:59:12.119Z,9.88
2017-03-28T11:00:12.055Z,9.98
2017-03-28T11:01:11.736Z,9.50
2017-03-28T11:02:10.807Z,9.97
2017-03-28T11:03:10.302Z,11.05
2017-03-28T11:04:09.179Z,9.47
2017-03-28T11:05:08.006Z,9.02
2017-03-28T11:06:06.849Z,9.82
2017-03-28T11:07:05.691Z,10.33
2017-03-28T11:08:04.593Z,10.17
2017-03-28T11:09:03.492Z,9.82
2017-03-28T11:10:02.328Z,10.00
2017-03-28T11:11:01.185Z,10.32
2017-03-28T11:12:00.041Z,11.13
2017-03-28T11:12:58.849Z,10.10
2017-03-28T11:13:57.662Z,9.88
2017-03-28T11:14:56.784Z,9.17
2017-03-28T11:15:55.629Z,10.17
2017-03-28T11:16:54.037Z,8.80
2017-03-28T11:17:52.862Z,10.15
2017-03-28T11:18:51.680Z,10.10
2017-03-28T11:19:50.463Z,9.90
2017-03-28T11:20:49.558Z,10.73
2017-03-28T11:21:47.980Z,10.72
2017-03-28T11:22:46.829Z,9.75
2017-03-28T11:23:45.624Z,9.67
2017-03-28T11:24:44.441Z,10.10
2017-03-28T11:25:43.270Z,10.00
2017-03-28T11:26:42.370Z,10.50
2017-03-28T11:27:41.210Z,8.75
2017-03-28T11:28:40.024Z,8.93
2017-03-28T11:29:38.825Z,9.93
2017-03-28T11:30:37.676Z,10.43
2017-03-28T11:31:36.485Z,9.57
2017-03-28T11:32:35.608Z,11.40
2017-03-28T11:33:34.369Z,9.07
2017-03-28T11:34:33.222Z,9.25
2017-03-28T11:35:31.603Z,8.82
2017-03-28T11:36:31.241Z,9.02
2017-03-28T11:37:31.880Z,8.72
2017-03-28T11:38:34.730Z,9.20
2017-03-28T11:39:39.017Z,9.52
2017-03-28T11:41:56.751Z,8.35
2017-03-28T11:42:57.217Z,9.62
2017-03-28T11:43:57.276Z,9.23
2017-03-28T11:44:57.169Z,8.28
2017-03-28T11:47:19.032Z,9.48
2017-03-28T11:48:24.511Z,9.77
2017-03-28T11:49:24.649Z,9.38
2017-03-28T11:50:25.726Z,9.07
2017-03-28T11:51:27.882Z,9.42
2017-03-28T11:52:29.647Z,9.35
2017-03-28T11:53:29.868Z,9.28
2017-03-28T11:54:31.561Z,8.58
2017-03-28T11:55:31.141Z,9.90
2017-03-28T11:56:30.736Z,8.52
2017-03-28T11:57:30.636Z,7.98
2017-03-28T11:58:30.989Z,8.50
2017-03-28T11:59:37.138Z,9.37
2017-03-28T12:00:38.287Z,9.70
2017-03-28T12:01:37.973Z,9.32
2017-03-28T12:02:38.321Z,10.42
2017-03-28T12:03:43.068Z,9.68
2017-03-28T12:04:48.259Z,10.20
2017-03-28T12:05:53.088Z,9.55
2017-03-28T12:06:56.267Z,10.32
2017-03-28T12:08:03.164Z,9.52
2017-03-28T12:09:02.919Z,8.15
2017-03-28T12:10:02.183Z,9.85
2017-03-28T12:11:04.402Z,8.88
2017-03-28T12:12:07.257Z,9.55
2017-03-28T12:13:13.793Z,8.60
2017-03-28T12:14:22.999Z,9.13
2017-03-28T12:15:23.230Z,9.58
2017-03-28T12:16:23.175Z,11.18
2017-03-28T12:17:22.961Z,9.45
2017-03-28T12:18:24.208Z,8.37
2017-03-28T12:19:26.399Z,8.62
2017-03-28T12:20:26.482Z,9.15
2017-03-28T12:21:29.292Z,10.72
2017-03-28T12:22:29.960Z,9.23
2017-03-28T12:23:34.013Z,9.90
2017-03-28T12:24:33.954Z,10.00
2017-03-28T12:25:37.482Z,8.90
2017-03-28T12:26:41.056Z,10.63
2017-03-28T12:27:43.582Z,9.77
2017-03-28T12:28:47.227Z,9.13
2017-03-28T12:29:58.502Z,8.08
2017-03-28T12:30:59.320Z,8.42
2017-03-28T12:32:00.310Z,8.20
2017-03-28T12:33:00.633Z,9.37
2017-03-28T12:33:59.463Z,8.32
2017-03-28T12:34:58.254Z,8.63
2017-03-28T12:35:56.693Z,8.90
2017-03-28T12:36:55.900Z,8.92
2017-03-28T12:37:54.812Z,10.15
2017-03-28T12:38:53.603Z,8.63
2017-03-28T12:39:52.878Z,9.00
2017-03-28T12:40:52.531Z,8.15
2017-03-28T12:41:52.614Z,8.13
2017-03-28T12:42:52.027Z,8.07
2017-03-28T12:43:51.244Z,8.85
2017-03-28T12:44:50.246Z,8.70
2017-03-28T12:45:50.265Z,8.87
2017-03-28T12:46:49.394Z,9.15
2017-03-28T12:47:48.791Z,10.12
2017-03-28T12:48:48.814Z,10.08
2017-03-28T12:49:48.092Z,9.40
2017-03-28T12:50:47.654Z,8.50
2017-03-28T12:51:47.051Z,8.65
2017-03-28T12:52:46.608Z,8.03
2017-03-28T12:53:46.067Z,7.82
2017-03-28T12:54:45.639Z,7.25
2017-03-28T12:55:45.695Z,6.80
2017-03-28T12:56:45.262Z,7.07
2017-03-28T12:57:44.673Z,8.48
2017-03-28T12:58:43.967Z,9.10
2017-03-28T12:59:43.439Z,8.32
2017-03-28T13:00:43.380Z,8.48
2017-03-28T13:01:43.112Z,8.70
2017-03-28T13:02:43.043Z,8.65
2017-03-28T13:03:42.677Z,8.08
2017-03-28T13:04:42.355Z,8.23
2017-03-28T13:05:41.756Z,7.87
2017-03-28T13:06:41.547Z,8.23
2017-03-28T13:07:40.997Z,7.33
2017-03-28T13:08:40.632Z,7.97